createdAt,value
2022-08-31T00:02:02.380Z,100.00
2022-08-31T00:05:17.209Z,100.00
2022-08-31T00:08:29.363Z,100.00
2022-08-31T00:11:48.921Z,100.00
2022-08-31T00:15:01.175Z,100.00
2022-08-31T00:18:14.429Z,100.00
2022-08-31T00:21:27.930Z,100.00
2022-08-31T00:24:50.626Z,100.00
2022-08-31T00:28:03.749Z,100.00
2022-08-31T00:34:56.698Z,100.00
2022-08-31T00:38:10.454Z,100.00
2022-08-31T00:41:25.606Z,100.00
2022-08-31T00:44:37.761Z,100.00
2022-08-31T00:47:50.090Z,100.00
2022-08-31T00:55:01.685Z,100.00
2022-08-31T00:58:16.875Z,100.00
2022-08-31T01:01:36.804Z,100.00
2022-08-31T01:04:51.719Z,100.00
2022-08-31T01:08:15.060Z,100.00
2022-08-31T01:11:28.336Z,100.00
2022-08-31T01:14:41.389Z,100.00
2022-08-31T01:18:08.849Z,100.00
2022-08-31T01:21:29.659Z,100.00
2022-08-31T01:24:51.741Z,100.00
2022-08-31T01:28:07.885Z,100.00
2022-08-31T01:31:29.917Z,100.00
2022-08-31T01:34:42.303Z,100.00
2022-08-31T01:37:54.947Z,100.00
2022-08-31T01:41:09.848Z,100.00
2022-08-31T01:44:28.075Z,100.00
2022-08-31T01:47:40.326Z,100.00
2022-08-31T01:54:40.609Z,100.00
2022-08-31T01:57:53.385Z,100.00
2022-08-31T02:01:32.760Z,100.00
2022-08-31T02:04:25.632Z,100.00
2022-08-31T02:07:39.458Z,100.00
2022-08-31T02:10:52.849Z,100.00
2022-08-31T02:14:04.907Z,100.00
2022-08-31T02:17:17.030Z,100.00
2022-08-31T02:20:29.639Z,100.00
2022-08-31T02:23:41.778Z,100.00
2022-08-31T02:26:54.045Z,100.00
2022-08-31T02:30:06.314Z,100.00
2022-08-31T02:33:29.352Z,100.00
2022-08-31T02:40:24.820Z,100.00
2022-08-31T02:43:38.630Z,100.00
2022-08-31T02:46:50.672Z,100.00
2022-08-31T02:50:27.056Z,100.00
2022-08-31T02:53:48.120Z,100.00
2022-08-31T02:57:00.603Z,100.00
2022-08-31T03:00:16.087Z,100.00
2022-08-31T03:03:30.785Z,100.00
2022-08-31T03:06:50.273Z,100.00
2022-08-31T03:10:03.408Z,100.00
2022-08-31T03:13:15.399Z,100.00
2022-08-31T03:16:31.220Z,100.00
2022-08-31T03:19:43.283Z,100.00
2022-08-31T03:22:57.202Z,100.00
2022-08-31T03:26:19.465Z,100.00
2022-08-31T03:29:32.449Z,100.00
2022-08-31T03:32:48.234Z,100.00
2022-08-31T03:36:02.849Z,100.00
2022-08-31T03:39:18.179Z,100.00
2022-08-31T03:42:33.025Z,100.00
2022-08-31T03:45:46.263Z,100.00
2022-08-31T03:48:58.915Z,100.00
2022-08-31T03:52:12.541Z,100.00
2022-08-31T03:55:28.201Z,100.00
2022-08-31T03:58:41.061Z,100.00
2022-08-31T04:01:53.418Z,100.00
2022-08-31T04:05:36.123Z,100.00
2022-08-31T04:08:52.505Z,100.00
2022-08-31T04:15:29.314Z,100.00
2022-08-31T04:19:00.834Z,100.00
2022-08-31T04:22:13.942Z,100.00
2022-08-31T04:25:27.858Z,100.00
2022-08-31T04:28:50.697Z,100.00
2022-08-31T04:32:02.709Z,100.00
2022-08-31T04:35:15.957Z,100.00
2022-08-31T04:42:11.432Z,100.00
2022-08-31T04:45:24.656Z,100.00
2022-08-31T04:48:38.052Z,100.00
2022-08-31T04:51:50.143Z,100.00
2022-08-31T04:55:03.221Z,100.00
2022-08-31T04:58:17.671Z,100.00
2022-08-31T05:01:47.276Z,100.00
2022-08-31T05:05:18.562Z,100.00
2022-08-31T05:08:30.781Z,100.00
2022-08-31T05:11:46.544Z,100.00
2022-08-31T05:15:00.695Z,100.00
2022-08-31T05:18:13.523Z,100.00
2022-08-31T05:21:46.657Z,100.00
2022-08-31T05:24:58.866Z,100.00
2022-08-31T05:28:12.333Z,100.00
2022-08-31T05:35:05.074Z,100.00
2022-08-31T05:38:18.650Z,100.00
2022-08-31T05:41:31.178Z,100.00
2022-08-31T05:48:30.178Z,100.00
2022-08-31T05:51:40.149Z,100.00
2022-08-31T05:54:53.243Z,100.00
2022-08-31T05:58:05.973Z,100.00
2022-08-31T06:01:23.977Z,100.00
2022-08-31T06:07:44.294Z,99.38
2022-08-31T06:10:59.373Z,96.74
2022-08-31T06:14:13.716Z,96.71
2022-08-31T06:17:34.837Z,93.88
2022-08-31T06:56:20.871Z,85.80
2022-08-31T06:59:50.647Z,85.18
2022-08-31T07:03:08.100Z,87.22
2022-08-31T07:06:23.489Z,87.49
2022-08-31T07:09:35.231Z,87.35
2022-08-31T07:12:48.253Z,86.76
2022-08-31T07:16:15.373Z,86.32
2022-08-31T07:19:31.363Z,86.79
2022-08-31T07:22:43.515Z,88.84
2022-08-31T07:25:57.465Z,90.52
2022-08-31T07:29:10.700Z,91.16
2022-08-31T07:32:23.496Z,93.83
2022-08-31T07:35:36.336Z,94.64
2022-08-31T07:39:20.089Z,91.32
2022-08-31T07:42:36.790Z,87.56
2022-08-31T07:45:49.833Z,86.54
2022-08-31T07:49:05.412Z,84.63
2022-08-31T07:52:27.327Z,86.84
2022-08-31T07:56:01.052Z,83.31
2022-08-31T07:59:31.170Z,85.39
2022-08-31T08:02:46.490Z,85.32
2022-08-31T08:21:32.236Z,80.85
2022-08-31T08:24:46.871Z,82.23
2022-08-31T08:28:38.716Z,83.97
2022-08-31T08:31:34.704Z,83.17
2022-08-31T08:38:49.169Z,87.03
2022-08-31T08:42:02.675Z,87.36
2022-08-31T08:52:46.940Z,86.97
2022-08-31T08:56:17.269Z,87.40
2022-08-31T08:59:19.033Z,87.79
2022-08-31T09:02:38.541Z,87.12
2022-08-31T09:06:09.588Z,87.49
2022-08-31T09:09:36.442Z,86.27
2022-08-31T09:12:58.315Z,85.75
2022-08-31T09:16:22.534Z,84.30
2022-08-31T09:19:38.166Z,83.99
2022-08-31T09:22:55.856Z,85.23
2022-08-31T09:26:10.153Z,81.74
2022-08-31T09:29:32.600Z,81.60
2022-08-31T09:32:45.171Z,78.92
2022-08-31T09:36:00.618Z,79.16
2022-08-31T09:39:37.502Z,80.32
2022-08-31T09:42:53.424Z,78.83
2022-08-31T09:46:11.859Z,78.12
2022-08-31T09:49:31.215Z,77.50
2022-08-31T09:52:58.308Z,76.86
2022-08-31T09:56:21.072Z,76.72
2022-08-31T09:59:47.245Z,79.11
2022-08-31T10:03:08.561Z,78.29
2022-08-31T10:06:44.146Z,76.70
2022-08-31T10:10:02.942Z,78.93
2022-08-31T10:13:22.090Z,78.21
2022-08-31T10:16:38.891Z,78.88
2022-08-31T10:20:03.168Z,80.25
2022-08-31T10:23:22.283Z,82.44
2022-08-31T10:29:57.081Z,83.38
2022-08-31T10:33:19.416Z,81.53
2022-08-31T10:36:33.994Z,82.24
2022-08-31T10:39:50.239Z,83.92
2022-08-31T10:43:11.090Z,82.61
2022-08-31T10:46:24.050Z,82.57
2022-08-31T10:49:39.202Z,81.98
2022-08-31T10:53:02.510Z,82.06
2022-08-31T10:56:19.031Z,85.06
2022-08-31T10:59:37.321Z,82.33
2022-08-31T11:02:57.706Z,80.09
2022-08-31T11:06:15.847Z,76.73
2022-08-31T11:09:33.565Z,75.99
2022-08-31T11:12:52.229Z,76.44
2022-08-31T11:16:19.981Z,77.29
2022-08-31T11:19:44.899Z,74.80
2022-08-31T11:23:29.981Z,70.77
2022-08-31T11:26:57.079Z,71.47
2022-08-31T11:30:16.406Z,72.25
2022-08-31T11:33:32.597Z,68.51
2022-08-31T11:36:55.526Z,69.71
2022-08-31T11:40:07.918Z,68.37
2022-08-31T11:43:38.381Z,65.30
2022-08-31T11:47:12.941Z,69.72
2022-08-31T11:51:07.252Z,67.00
2022-08-31T11:54:32.549Z,64.63
2022-08-31T11:58:39.217Z,67.95
2022-08-31T12:01:52.086Z,68.27
2022-08-31T12:05:09.679Z,67.14
2022-08-31T12:08:21.844Z,65.28
2022-08-31T12:11:44.541Z,67.97
2022-08-31T12:15:02.418Z,65.31
2022-08-31T12:18:29.126Z,65.70
2022-08-31T12:22:05.140Z,65.68
2022-08-31T12:25:25.593Z,67.74
2022-08-31T12:28:44.163Z,69.56
2022-08-31T12:32:23.696Z,65.23
2022-08-31T12:35:39.325Z,67.23
2022-08-31T12:38:51.836Z,65.09
2022-08-31T12:42:08.286Z,64.19
2022-08-31T12:45:21.277Z,66.87
2022-08-31T12:49:15.974Z,66.02
2022-08-31T12:52:49.463Z,70.73
2022-08-31T12:56:06.269Z,68.56
2022-08-31T12:59:51.382Z,71.94
2022-08-31T13:02:49.810Z,69.93
2022-08-31T13:13:12.175Z,70.82
2022-08-31T13:16:25.552Z,70.09
2022-08-31T13:19:42.662Z,66.48
2022-08-31T13:23:03.825Z,65.91
2022-08-31T13:26:25.132Z,64.10
2022-08-31T13:29:39.349Z,66.07
2022-08-31T13:32:54.884Z,69.68
2022-08-31T13:36:11.862Z,67.47
2022-08-31T13:39:25.384Z,64.65
2022-08-31T13:42:43.039Z,64.06
2022-08-31T13:46:02.394Z,65.94
2022-08-31T13:49:30.987Z,66.65
2022-08-31T13:52:44.214Z,64.84
2022-08-31T13:55:55.946Z,64.74
2022-08-31T14:02:44.977Z,62.24
2022-08-31T14:06:03.544Z,60.98
2022-08-31T14:09:23.734Z,62.62
2022-08-31T14:12:49.473Z,59.55
2022-08-31T14:16:04.206Z,63.84
2022-08-31T14:19:17.985Z,66.40
2022-08-31T14:22:36.737Z,63.67
2022-08-31T14:25:50.938Z,62.63
2022-08-31T14:29:09.096Z,63.93
2022-08-31T14:32:22.733Z,62.65
2022-08-31T14:35:34.891Z,65.22
2022-08-31T14:38:48.331Z,63.18
2022-08-31T14:42:02.858Z,62.60
2022-08-31T14:45:19.353Z,63.70
2022-08-31T14:48:31.568Z,65.39
2022-08-31T14:51:44.212Z,62.71
2022-08-31T14:54:57.918Z,62.48
2022-08-31T14:58:13.537Z,63.90
2022-08-31T15:01:26.246Z,65.83
2022-08-31T15:04:42.835Z,64.07
2022-08-31T15:07:53.113Z,64.08
2022-08-31T15:11:06.209Z,64.10
2022-08-31T15:14:18.721Z,67.07
2022-08-31T15:17:33.222Z,68.92
2022-08-31T15:20:45.178Z,68.21
2022-08-31T15:23:58.633Z,65.53
2022-08-31T15:27:13.578Z,65.39
2022-08-31T15:30:26.675Z,67.71
2022-08-31T15:33:41.433Z,66.55
2022-08-31T15:36:56.152Z,67.08
2022-08-31T15:40:11.627Z,69.90
2022-08-31T15:43:25.609Z,64.68
2022-08-31T15:46:51.824Z,63.81
2022-08-31T15:50:05.658Z,63.99
2022-08-31T15:53:18.930Z,65.04
2022-08-31T15:56:31.988Z,63.87
2022-08-31T15:59:46.018Z,64.58
2022-08-31T16:03:01.524Z,65.77
2022-08-31T16:06:15.030Z,65.83
2022-08-31T16:09:27.957Z,65.96
2022-08-31T16:12:40.182Z,66.92
2022-08-31T16:15:57.080Z,66.45
2022-08-31T16:19:08.276Z,65.24
2022-08-31T16:22:22.488Z,65.75
2022-08-31T16:25:47.370Z,66.35
2022-08-31T16:28:51.502Z,65.95
2022-08-31T16:32:03.945Z,67.09
2022-08-31T16:35:17.444Z,67.26
2022-08-31T16:38:31.585Z,66.45
2022-08-31T16:41:45.174Z,66.63
2022-08-31T16:45:01.802Z,66.95
2022-08-31T16:48:29.364Z,67.74
2022-08-31T16:51:40.548Z,66.46
2022-08-31T16:54:57.020Z,67.00
2022-08-31T16:58:09.043Z,64.59
2022-08-31T17:01:25.595Z,63.75
2022-08-31T17:04:54.199Z,64.97
2022-08-31T17:07:52.192Z,65.30
2022-08-31T17:11:04.902Z,64.60
2022-08-31T17:14:18.729Z,65.99
2022-08-31T17:17:33.141Z,65.32
2022-08-31T17:20:45.410Z,64.86
2022-08-31T17:23:58.754Z,66.21
2022-08-31T17:27:13.711Z,66.77
2022-08-31T17:30:25.923Z,68.38
2022-08-31T17:33:37.655Z,67.14
2022-08-31T17:36:51.961Z,67.47
2022-08-31T17:40:04.583Z,69.83
2022-08-31T17:43:17.701Z,69.36
2022-08-31T17:46:30.319Z,69.08
2022-08-31T17:49:46.579Z,70.65
2022-08-31T17:52:58.975Z,70.95
2022-08-31T17:56:12.998Z,72.33
2022-08-31T17:59:28.364Z,71.06
2022-08-31T18:02:39.997Z,75.40
2022-08-31T18:05:52.620Z,76.14
2022-08-31T18:09:05.438Z,76.58
2022-08-31T18:12:20.496Z,77.07
2022-08-31T18:15:32.213Z,76.79
2022-08-31T18:18:45.609Z,76.67
2022-08-31T18:21:57.826Z,76.77
2022-08-31T18:25:10.648Z,76.88
2022-08-31T18:28:22.648Z,77.32
2022-08-31T18:31:37.731Z,78.92
2022-08-31T18:34:54.087Z,77.30
2022-08-31T18:38:06.617Z,79.49
2022-08-31T18:41:33.309Z,82.05
2022-08-31T18:45:00.132Z,82.17
2022-08-31T18:48:24.715Z,82.22
2022-08-31T18:51:26.095Z,81.98
2022-08-31T18:54:39.113Z,81.66
2022-08-31T18:57:50.824Z,82.70
2022-08-31T19:01:04.857Z,83.88
2022-08-31T19:04:21.763Z,83.98
2022-08-31T19:07:31.780Z,84.11
2022-08-31T19:10:47.002Z,85.75
2022-08-31T19:14:01.464Z,87.05
2022-08-31T19:17:15.349Z,86.53
2022-08-31T19:20:29.318Z,87.40
2022-08-31T19:23:41.275Z,86.72
2022-08-31T19:26:56.678Z,87.96
2022-08-31T19:30:09.802Z,88.41
2022-08-31T19:33:23.736Z,89.06
2022-08-31T19:36:40.462Z,89.69
2022-08-31T19:39:50.795Z,89.82
2022-08-31T19:43:44.851Z,90.39
2022-08-31T19:46:23.214Z,89.26
2022-08-31T19:49:36.004Z,90.48
2022-08-31T19:52:49.108Z,89.85
2022-08-31T19:56:01.637Z,90.53
2022-08-31T19:59:17.666Z,92.87
2022-08-31T20:02:29.850Z,92.78
2022-08-31T20:05:44.748Z,91.56
2022-08-31T20:08:58.147Z,90.57
2022-08-31T20:12:11.956Z,90.75
2022-08-31T20:15:24.059Z,91.79
2022-08-31T20:18:37.311Z,91.97
2022-08-31T20:21:51.724Z,92.25
2022-08-31T20:25:03.932Z,91.25
2022-08-31T20:28:16.075Z,93.56
2022-08-31T20:31:27.997Z,93.87
2022-08-31T20:34:39.730Z,92.53
2022-08-31T20:37:51.259Z,93.42
2022-08-31T20:41:05.661Z,93.66
2022-08-31T20:44:20.522Z,95.21
2022-08-31T20:47:47.079Z,94.38
2022-08-31T20:50:59.707Z,95.09
2022-08-31T20:54:11.799Z,96.85
2022-08-31T20:57:23.722Z,95.18
2022-08-31T21:00:37.496Z,95.75
2022-08-31T21:03:49.332Z,95.16
2022-08-31T21:07:02.655Z,94.94
2022-08-31T21:10:21.223Z,94.73
2022-08-31T21:13:30.786Z,96.68
2022-08-31T21:16:43.154Z,95.35
2022-08-31T21:19:56.982Z,95.83
2022-08-31T21:23:10.890Z,97.56
2022-08-31T21:26:26.778Z,97.52
2022-08-31T21:29:38.950Z,98.44
2022-08-31T21:32:50.619Z,96.14
2022-08-31T21:36:15.066Z,98.26
2022-08-31T21:39:29.742Z,96.73
2022-08-31T21:42:41.524Z,96.62
2022-08-31T21:45:54.974Z,96.49
2022-08-31T21:49:08.777Z,97.07
2022-08-31T21:52:21.534Z,98.41
2022-08-31T21:55:33.074Z,97.20
2022-08-31T21:58:45.225Z,96.44
2022-08-31T22:01:59.322Z,98.16
2022-08-31T22:05:12.531Z,96.43
2022-08-31T22:08:26.104Z,97.48
2022-08-31T22:11:43.938Z,97.82
2022-08-31T22:14:55.522Z,96.51
2022-08-31T22:18:46.071Z,98.71
2022-08-31T22:21:26.956Z,97.91
2022-08-31T22:24:40.165Z,98.90
2022-08-31T22:27:51.952Z,99.58
2022-08-31T22:31:07.465Z,99.14
2022-08-31T22:34:20.301Z,100.00
2022-08-31T22:37:33.876Z,100.00
2022-08-31T22:40:48.103Z,100.00
2022-08-31T22:47:00.643Z,100.00
2022-08-31T22:50:14.799Z,100.00
2022-08-31T22:53:26.403Z,100.00
2022-08-31T22:56:41.865Z,100.00
2022-08-31T22:59:54.716Z,100.00
2022-08-31T23:03:06.743Z,99.09
2022-08-31T23:06:20.433Z,100.00
2022-08-31T23:09:34.292Z,100.00
2022-08-31T23:12:45.974Z,99.69
2022-08-31T23:15:59.619Z,99.71
2022-08-31T23:19:16.599Z,99.14
2022-08-31T23:22:29.665Z,100.00
2022-08-31T23:25:43.074Z,100.00
2022-08-31T23:28:54.679Z,100.00
2022-08-31T23:32:06.349Z,100.00
2022-08-31T23:35:19.735Z,100.00
2022-08-31T23:38:31.580Z,100.00
2022-08-31T23:41:43.764Z,100.00
2022-08-31T23:44:56.088Z,100.00
2022-08-31T23:48:08.459Z,100.00
2022-08-31T23:51:20.634Z,100.00
2022-08-31T23:54:32.174Z,100.00
2022-08-31T23:57:45.514Z,100.00
